Messwerte McGrath

Temperatur

Temperatur
°C
1618639200 22.00 22.00 3
1618642800 23.00 23.00 1
1618646400 0.00 0.00 -2
1618650000 1.00 1.00 -1
1618653600 2.00 2.00 -2
1618657200 3.00 3.00 -3
1618660800 4.00 4.00 -4
1618664400 5.00 5.00 -5
1618668000 6.00 6.00 -6
1618671600 7.00 7.00 -7
1618675200 8.00 8.00 -7
1618678800 9.00 9.00 -4
1618682400 10.00 10.00 0
1618686000 11.00 11.00 4
1618689600 12.00 12.00 6
1618693200 13.00 13.00 7
1618696800 14.00 14.00 8
1618700400 15.00 15.00 9
1618704000 16.00 16.00
1618707600 17.00 17.00 11
1618711200 18.00 18.00 11
1618714800 19.00 19.00 11
1618718400 20.00 20.00 11
1618722000 21.00 21.00 9

Aktuellste Messwerte

Wettercharakter
Wetter: klar
Temperatur
6 °C
Feuchtigkeit
50 %
Wind
0 km/h, -
Luftdruck
1028 hPa
Messzeit: 17. April 2021, 22.00Datenquelle: METAR

Weitere Messstationen in der Nähe

Messstation Temperatur Entfernung
Takotna 8 °C 21 km
Sleetmute 6 °C 159 km
Minchumina 7 °C 195 km
Sparrevohn 6 °C 206 km
Galena 9 °C 209 km
Kaltag 3 °C 218 km
Holy Cross 7 °C 231 km

Wind

Windrichtung Böen Mittelwind
° km/h km/h
1618639200 22.00 21.00 - 22.00 0
1618642800 23.00 22.00 - 23.00 0
1618646400 0.00 23.00 - 0.00
1618650000 1.00 0.00 - 1.00 290° 10
1618653600 2.00 1.00 - 2.00 260° 10
1618657200 3.00 2.00 - 3.00 270° 5
1618660800 4.00 3.00 - 4.00 300° 5
1618664400 5.00 4.00 - 5.00 0
1618668000 6.00 5.00 - 6.00 310° 5
1618671600 7.00 6.00 - 7.00 270° 5
1618675200 8.00 7.00 - 8.00 280° 5
1618678800 9.00 8.00 - 9.00 280° 5
1618682400 10.00 9.00 - 10.00 0
1618686000 11.00 10.00 - 11.00 340° 5
1618689600 12.00 11.00 - 12.00 360° 15
1618693200 13.00 12.00 - 13.00 360° 15
1618696800 14.00 13.00 - 14.00 10° 10
1618700400 15.00 14.00 - 15.00 360° 15
1618704000 16.00 15.00 - 16.00
1618707600 17.00 16.00 - 17.00 20° 15
1618711200 18.00 17.00 - 18.00 30° 5
1618714800 19.00 18.00 - 19.00 360° 10
1618718400 20.00 19.00 - 20.00 30° 10
1618722000 21.00 20.00 - 21.00 40° 5

Ihre Wetterstation

Fehlt Ihre Wetterstation auf unserem Portal?

Schreiben Sie an network@meteonews.ch

Klima

Wann ist es am wärmsten? Wann regnet es am wenigsten? Unsere Klimadaten geben Auskunft.